Terminal Aerodrome Forecast
Issued by NWS Charleston, WV

Home | Current Version | Previous Version | Text Only | Print | Product List | Glossary On
Versions: 1 2 3 4 5 6 7 8 9 10 11 12 13 14 15 16 17 18 19 20 21 22 23
000
FTUS41 KRLX 261000 AAA
TAFBKW
TAF AMD
KBKW 261010Z 2610/2706 VRB04KT P6SM OVC050
     FM261300 17004KT P6SM OVC020
     FM261400 24006KT 5SM -RA BR OVC012
     FM261700 29007KT 3SM -RA BR OVC010
     FM262000 30009KT 1SM -SN OVC004
     FM270000 31009KT 2SM -SN OVC008
     FM270300 31009KT 3SM -SN OVC010=

USA.gov is the U.S. government's official web portal to all federal, state and local government web resources and services.